Time;durP1;ratioP1;P1;durP2;ratioP2;P2;SDS_P1;SDS_P2;PMS_P1;PMS_P2;Temp;Humidity;BMP_temperature;BMP_pressure;BME280_temperature;BME280_humidity;BME280_pressure;Samples;Min_cycle;Max_cycle;Signal;HPM_P1;HPM_P2
2023/08/05 00:04:59;;;;;;;3.72;3.30;;;;;;;17.92;81.50;100091.88;10182675;28;20544;-63
2023/08/05 00:10:00;;;;;;;4.43;2.78;;;;;;;17.89;81.47;100086.84;10186667;28;20059;-63
2023/08/05 00:15:02;;;;;;;3.83;3.30;;;;;;;17.84;82.54;100078.44;10174460;28;20060;-63
2023/08/05 00:20:05;;;;;;;3.20;2.90;;;;;;;17.82;82.28;100081.31;10183727;28;20880;-63
2023/08/05 00:25:06;;;;;;;3.40;3.10;;;;;;;17.76;82.33;100078.44;10185337;28;20689;-63
2023/08/05 00:30:08;;;;;;;3.97;3.13;;;;;;;17.72;82.77;100074.44;10185486;28;20193;-63
2023/08/05 00:35:10;;;;;;;2.90;2.67;;;;;;;17.71;82.08;100084.34;10186398;28;20062;-63
2023/08/05 00:40:12;;;;;;;3.65;3.35;;;;;;;17.69;82.90;100081.00;10185969;28;20808;-63
2023/08/05 00:45:13;;;;;;;3.67;2.78;;;;;;;17.62;82.14;100075.47;10188455;28;20055;-64
2023/08/05 00:50:15;;;;;;;3.03;2.40;;;;;;;17.60;81.74;100076.69;10182576;28;20224;-63
2023/08/05 00:55:18;;;;;;;3.25;2.90;;;;;;;17.56;82.20;100088.78;10185412;28;20082;-64
2023/08/05 01:00:19;;;;;;;2.97;2.65;;;;;;;17.54;82.36;100088.97;10182703;28;20070;-63
2023/08/05 01:05:23;;;;;;;2.35;2.15;;;;;;;17.49;82.11;100089.50;10197274;28;20059;-64
2023/08/05 01:10:25;;;;;;;3.80;2.30;;;;;;;17.44;83.09;100088.31;10189964;28;20889;-64
2023/08/05 01:15:27;;;;;;;2.60;2.40;;;;;;;17.42;82.62;100093.03;10185534;28;20639;-64
2023/08/05 01:20:33;;;;;;;2.63;2.20;;;;;;;17.43;83.55;100097.41;10181414;28;20063;-64
2023/08/05 01:25:35;;;;;;;2.95;2.10;;;;;;;17.45;82.38;100100.78;10172706;28;20110;-63
2023/08/05 01:30:38;;;;;;;3.70;2.75;;;;;;;17.43;83.18;100089.31;10169415;28;20062;-63
2023/08/05 01:35:46;;;;;;;3.67;2.75;;;;;;;17.39;83.02;100074.56;10193563;28;20051;-64
2023/08/05 01:40:47;;;;;;;3.95;3.10;;;;;;;17.37;84.16;100082.81;10180489;28;20044;-64
2023/08/05 01:45:49;;;;;;;3.75;3.13;;;;;;;17.35;84.24;100084.81;10178051;28;20265;-63
2023/08/05 01:50:50;;;;;;;3.28;2.88;;;;;;;17.31;84.43;100070.03;10174830;28;20051;-64
2023/08/05 01:55:52;;;;;;;3.90;3.47;;;;;;;17.30;84.63;100066.50;10178008;28;20075;-64
2023/08/05 02:00:54;;;;;;;3.03;2.80;;;;;;;17.26;85.24;100070.56;10175951;28;20079;-63
2023/08/05 02:05:55;;;;;;;3.17;2.90;;;;;;;17.24;85.06;100072.56;10197174;28;20051;-63
2023/08/05 02:10:57;;;;;;;2.83;2.63;;;;;;;17.22;84.24;100079.97;10181766;28;20101;-63
2023/08/05 02:16:01;;;;;;;3.90;3.50;;;;;;;17.20;85.23;100071.22;10181383;28;20373;-64
2023/08/05 02:21:03;;;;;;;5.40;3.53;;;;;;;17.18;84.57;100057.13;10182992;28;20130;-64
2023/08/05 02:26:05;;;;;;;3.75;3.33;;;;;;;17.14;84.42;100062.00;10198128;28;20507;-64
2023/08/05 02:31:06;;;;;;;5.65;2.97;;;;;;;17.10;84.80;100060.66;10182053;28;20883;-64
2023/08/05 02:36:08;;;;;;;3.03;2.72;;;;;;;17.08;84.67;100056.47;10173976;28;20052;-64
2023/08/05 02:41:11;;;;;;;3.67;2.70;;;;;;;17.09;85.16;100058.16;10179430;28;20059;-64
2023/08/05 02:46:12;;;;;;;3.17;2.90;;;;;;;17.03;84.93;100046.22;10178171;28;20058;-63
2023/08/05 02:51:14;;;;;;;3.60;3.03;;;;;;;17.03;85.38;100054.28;10178900;28;20158;-63
2023/08/05 02:56:16;;;;;;;3.88;2.72;;;;;;;16.92;85.48;100039.34;10184778;28;20046;-64
2023/08/05 03:01:17;;;;;;;5.40;3.60;;;;;;;16.88;84.64;100046.06;10180358;28;20489;-63
2023/08/05 03:06:19;;;;;;;5.18;3.53;;;;;;;16.82;85.28;100033.28;10191292;28;20217;-63
2023/08/05 03:11:21;;;;;;;3.53;3.22;;;;;;;16.87;85.54;100039.00;10189079;28;20044;-64
2023/08/05 03:16:23;;;;;;;3.60;3.30;;;;;;;16.85;86.17;100035.63;10168340;28;20138;-65
2023/08/05 03:21:24;;;;;;;4.00;3.10;;;;;;;16.84;86.06;100041.16;10162506;28;20054;-64
2023/08/05 03:26:25;;;;;;;2.85;2.63;;;;;;;16.82;86.60;100030.59;10179463;28;20277;-64
2023/08/05 03:31:27;;;;;;;5.07;3.10;;;;;;;16.77;85.89;100022.22;10175002;28;20074;-65
2023/08/05 03:36:29;;;;;;;3.83;2.30;;;;;;;16.69;85.76;100014.97;10177588;28;20062;-64
2023/08/05 03:41:32;;;;;;;3.92;1.90;;;;;;;16.76;86.25;100031.28;10178727;28;20051;-64
2023/08/05 03:46:33;;;;;;;2.70;2.47;;;;;;;16.62;86.09;100032.78;10181985;28;20252;-64
2023/08/05 03:51:35;;;;;;;2.95;2.25;;;;;;;16.53;86.63;100037.31;10175124;28;20086;-64
2023/08/05 03:56:37;;;;;;;4.55;2.47;;;;;;;16.59;86.32;100031.28;10179174;28;20051;-64
2023/08/05 04:01:38;;;;;;;2.88;2.20;;;;;;;16.63;86.37;100033.63;10179819;28;20203;-69
2023/08/05 04:06:40;;;;;;;3.15;2.25;;;;;;;16.67;85.73;100062.69;10191581;28;20051;-64
2023/08/05 04:11:42;;;;;;;2.55;2.33;;;;;;;16.68;85.45;100066.19;10174893;28;20063;-63
2023/08/05 04:16:43;;;;;;;3.17;2.60;;;;;;;16.68;86.50;100087.69;10199480;28;20058;-64
2023/08/05 04:21:47;;;;;;;2.90;2.33;;;;;;;16.64;86.66;100092.56;10169313;28;20062;-64
2023/08/05 04:26:53;;;;;;;3.40;2.30;;;;;;;16.65;86.25;100099.63;10183985;28;20055;-64
2023/08/05 04:31:55;;;;;;;2.83;2.47;;;;;;;16.68;86.84;100109.19;10196852;28;20063;-62
2023/08/05 04:36:56;;;;;;;5.00;3.00;;;;;;;16.70;86.83;100104.50;10195360;28;20123;-64
2023/08/05 04:41:58;;;;;;;2.60;2.40;;;;;;;16.68;86.90;100106.50;10188107;28;20059;-63
2023/08/05 04:46:59;;;;;;;3.78;2.72;;;;;;;16.70;86.98;100107.19;10182231;28;20736;-63
2023/08/05 04:52:06;;;;;;;3.30;2.75;;;;;;;16.69;87.53;100102.81;10177028;28;20067;-63
2023/08/05 04:57:07;;;;;;;4.65;3.25;;;;;;;16.73;86.27;100117.63;10182439;28;20055;-64
2023/08/05 05:02:10;;;;;;;3.60;3.30;;;;;;;16.79;87.40;100116.94;10172323;28;20055;-64
2023/08/05 05:07:11;;;;;;;3.15;2.85;;;;;;;16.86;87.59;100128.72;10188012;28;20050;-63
2023/08/05 05:12:13;;;;;;;4.35;2.90;;;;;;;16.88;87.23;100118.66;10194191;28;20055;-64
2023/08/05 05:17:16;;;;;;;4.78;2.78;;;;;;;16.90;87.90;100111.28;10180628;28;20059;-65
2023/08/05 05:22:19;;;;;;;4.20;3.67;;;;;;;16.91;86.94;100104.88;10175426;28;20063;-65
2023/08/05 05:27:20;;;;;;;3.95;3.22;;;;;;;17.00;87.81;100100.34;10182909;28;20047;-64
2023/08/05 05:32:22;;;;;;;3.65;3.35;;;;;;;17.09;88.39;100101.19;10181889;28;20096;-64
2023/08/05 05:37:23;;;;;;;4.65;2.90;;;;;;;17.19;88.02;100106.34;10182648;28;20063;-65
2023/08/05 05:42:25;;;;;;;6.40;2.78;;;;;;;17.26;87.50;100100.16;10188035;28;20082;-64
2023/08/05 05:47:27;;;;;;;2.38;2.17;;;;;;;17.35;86.88;100089.34;10179828;28;20185;-65
2023/08/05 05:52:29;;;;;;;2.15;1.95;;;;;;;17.41;86.77;100099.44;10180134;28;20547;-64
2023/08/05 05:57:31;;;;;;;5.22;3.58;;;;;;;17.48;86.95;100097.75;10166216;28;20055;-65
2023/08/05 06:02:32;;;;;;;3.35;2.78;;;;;;;17.57;87.49;100094.00;10177591;28;20159;-65
2023/08/05 06:07:34;;;;;;;4.57;2.75;;;;;;;17.67;87.31;100099.19;10170206;28;20108;-65
2023/08/05 06:12:37;;;;;;;5.75;3.03;;;;;;;17.73;87.83;100087.75;10180694;28;20194;-65
2023/08/05 06:17:39;;;;;;;3.38;2.38;;;;;;;17.79;86.62;100091.56;10164240;28;20477;-64
2023/08/05 06:22:41;;;;;;;3.15;2.35;;;;;;;17.87;86.56;100094.25;10200527;28;20047;-64
2023/08/05 06:27:42;;;;;;;4.15;2.67;;;;;;;17.95;85.87;100091.53;10177095;28;20074;-64
2023/08/05 06:32:44;;;;;;;4.18;2.78;;;;;;;18.06;85.59;100089.47;10184732;28;20172;-51
2023/08/05 06:37:46;;;;;;;3.15;2.42;;;;;;;18.12;84.61;100086.91;10180667;28;20078;-51
2023/08/05 06:42:49;;;;;;;4.20;2.10;;;;;;;18.17;84.84;100078.28;10178519;28;20891;-51
2023/08/05 06:47:51;;;;;;;3.10;1.73;;;;;;;18.30;83.51;100065.09;10181000;28;20063;-51
2023/08/05 06:52:53;;;;;;;3.88;2.60;;;;;;;18.45;82.58;100064.28;10179796;28;20082;-51
2023/08/05 06:57:54;;;;;;;2.72;1.88;;;;;;;18.57;82.70;100052.09;10180205;28;20055;-51
2023/08/05 07:02:57;;;;;;;3.13;2.40;;;;;;;18.66;81.24;100050.16;10181891;28;20063;-49
2023/08/05 07:07:58;;;;;;;4.13;2.17;;;;;;;18.80;81.63;100041.28;10179387;28;20059;-51
2023/08/05 07:13:05;;;;;;;3.08;2.17;;;;;;;18.85;79.80;100038.88;10176623;28;20249;-51
2023/08/05 07:18:07;;;;;;;3.30;2.90;;;;;;;18.94;80.50;100025.34;10180677;28;21473;-52
2023/08/05 07:23:09;;;;;;;2.05;1.85;;;;;;;19.13;80.53;100034.75;10181922;28;20063;-49
2023/08/05 07:28:10;;;;;;;4.20;2.30;;;;;;;19.32;79.73;100023.41;10176229;28;20184;-50
2023/08/05 07:33:13;;;;;;;2.47;2.28;;;;;;;19.29;77.59;100029.19;10192573;28;20134;-50
2023/08/05 07:38:14;;;;;;;3.92;2.30;;;;;;;19.43;78.41;100024.81;10181155;28;20067;-62
2023/08/05 07:43:18;;;;;;;3.42;2.13;;;;;;;19.54;76.97;100013.50;10177913;28;20051;-60
2023/08/05 07:48:19;;;;;;;2.40;2.20;;;;;;;19.58;76.10;100005.91;10187393;28;20066;-60
2023/08/05 07:53:23;;;;;;;2.60;2.40;;;;;;;19.57;75.78;100009.63;10188047;28;20062;-60
2023/08/05 07:58:25;;;;;;;3.65;2.22;;;;;;;19.81;75.78;100011.19;10191210;28;20060;-59
2023/08/05 08:03:29;;;;;;;3.03;2.55;;;;;;;19.97;74.79;100012.81;10201171;28;20050;-60
2023/08/05 08:08:30;;;;;;;4.45;2.65;;;;;;;20.06;73.65;100006.28;10201260;28;20062;-60
2023/08/05 08:13:32;;;;;;;2.70;2.10;;;;;;;20.14;71.76;99995.31;10192111;28;20832;-59
2023/08/05 08:18:33;;;;;;;3.38;2.08;;;;;;;20.32;71.73;100010.28;10182473;28;20173;-60
2023/08/05 08:23:35;;;;;;;2.47;1.70;;;;;;;20.40;70.93;100012.00;10187490;28;20559;-60
2023/08/05 08:28:37;;;;;;;2.20;1.98;;;;;;;20.59;70.09;100005.09;10189849;28;20070;-60
2023/08/05 08:33:38;;;;;;;1.92;1.63;;;;;;;20.69;69.89;100002.94;10188082;28;20051;-59
2023/08/05 08:38:40;;;;;;;2.72;2.17;;;;;;;20.91;69.40;100013.69;10173427;28;20211;-60
2023/08/05 08:43:43;;;;;;;5.70;2.03;;;;;;;21.15;68.56;100007.84;10194852;28;20062;-61
2023/08/05 08:48:51;;;;;;;2.40;1.48;;;;;;;21.42;66.54;100007.97;10184317;28;20051;-60
2023/08/05 08:53:54;;;;;;;3.40;1.75;;;;;;;21.54;63.15;100000.13;10187340;28;20048;-60
2023/08/05 08:58:55;;;;;;;1.50;1.10;;;;;;;21.51;65.70;99993.28;10186800;28;20074;-60
2023/08/05 09:03:59;;;;;;;1.20;0.95;;;;;;;21.72;64.67;99988.75;10183484;28;20099;-60
2023/08/05 09:09:00;;;;;;;;;;;;;;;21.89;61.87;99971.09;10176829;28;20106;-61
2023/08/05 09:14:03;;;;;;;2.70;1.48;;;;;;;22.04;60.91;99968.22;10172921;28;19932;-61
2023/08/05 09:19:05;;;;;;;1.33;1.23;;;;;;;22.18;61.96;99952.78;10177227;28;20135;-60
2023/08/05 09:24:07;;;;;;;1.77;1.00;;;;;;;22.28;58.86;99951.56;10194734;28;20052;-60
2023/08/05 09:29:20;;;;;;;1.65;1.10;;;;;;;22.39;60.49;99938.25;10184469;28;20819;-61
2023/08/05 09:34:34;;;;;;;1.95;1.27;;;;;;;22.62;58.02;99942.41;10188221;28;20127;-61
2023/08/05 09:39:47;;;;;;;2.45;0.98;;;;;;;22.83;58.11;99954.88;10185498;28;20114;-62
2023/08/05 09:44:49;;;;;;;1.73;1.10;;;;;;;22.79;57.01;99934.69;10173997;28;20088;-62
2023/08/05 09:49:52;;;;;;;2.90;1.07;;;;;;;22.70;55.58;99931.34;10200372;28;20044;-62
2023/08/05 09:55:00;;;;;;;1.25;0.90;;;;;;;22.74;54.19;99923.59;10184490;28;20055;-62
2023/08/05 10:00:07;;;;;;;2.40;0.88;;;;;;;22.84;55.92;99915.88;10183748;28;20071;-62
2023/08/05 10:05:10;;;;;;;2.28;1.10;;;;;;;22.93;54.20;99917.31;10175526;28;20039;-62
2023/08/05 10:10:16;;;;;;;2.10;1.00;;;;;;;23.04;54.79;99907.66;10171576;28;20539;-64
2023/08/05 10:15:26;;;;;;;1.48;0.90;;;;;;;23.32;53.48;99908.44;10196021;28;20052;-62
2023/08/05 10:20:35;;;;;;;2.25;1.05;;;;;;;23.41;55.34;99897.09;10177616;28;20617;-62
2023/08/05 10:25:40;;;;;;;2.92;0.98;;;;;;;23.79;54.57;99881.84;10181066;28;20095;-62
2023/08/05 10:30:43;;;;;;;2.30;0.88;;;;;;;23.88;52.34;99880.53;10182085;28;20062;-62
2023/08/05 10:35:45;;;;;;;1.52;0.80;;;;;;;24.10;53.66;99866.59;10182626;28;20113;-62
2023/08/05 10:41:01;;;;;;;1.73;0.75;;;;;;;23.98;53.45;99856.44;10185533;28;20432;-62
2023/08/05 10:46:05;;;;;;;2.22;1.45;;;;;;;24.13;51.19;99855.28;10170296;28;20154;-63
2023/08/05 10:51:14;;;;;;;1.10;0.82;;;;;;;24.30;51.57;99840.03;10186204;28;20061;-62
2023/08/05 10:56:16;;;;;;;1.52;0.70;;;;;;;24.58;48.14;99836.03;10182360;28;20165;-65
2023/08/05 11:01:18;;;;;;;1.15;0.60;;;;;;;24.61;48.23;99830.13;10180799;28;21385;-68
2023/08/05 11:06:22;;;;;;;1.33;0.90;;;;;;;24.63;47.75;99828.00;10181987;28;20063;-63
2023/08/05 11:11:23;;;;;;;2.03;0.95;;;;;;;24.62;49.10;99804.59;10184336;28;20154;-62
2023/08/05 11:16:25;;;;;;;1.98;0.95;;;;;;;24.86;46.70;99807.44;10165382;28;20722;-62
2023/08/05 11:21:26;;;;;;;2.40;0.70;;;;;;;24.95;48.77;99808.81;10206005;28;20067;-63
2023/08/05 11:26:28;;;;;;;2.95;1.23;;;;;;;25.37;47.65;99798.00;10204426;28;20397;-62
2023/08/05 11:31:30;;;;;;;1.20;0.65;;;;;;;25.62;47.50;99802.44;10193431;28;20073;-64
2023/08/05 11:36:31;;;;;;;1.98;0.90;;;;;;;25.60;44.63;99788.22;10187762;28;20062;-62
2023/08/05 11:41:34;;;;;;;2.97;0.65;;;;;;;25.67;44.19;99772.59;10187107;28;20107;-64
2023/08/05 11:46:35;;;;;;;1.80;0.77;;;;;;;25.81;42.88;99777.84;10192422;28;20063;-62
2023/08/05 11:51:51;;;;;;;1.17;0.57;;;;;;;25.78;45.31;99765.50;10173451;28;20065;-61
2023/08/05 11:56:55;;;;;;;1.90;0.63;;;;;;;25.76;42.46;99763.00;10194132;28;20501;-62
2023/08/05 12:01:57;;;;;;;1.60;0.80;;;;;;;25.98;43.03;99748.78;10179886;28;20869;-62
2023/08/05 12:06:59;;;;;;;2.70;0.57;;;;;;;26.11;41.55;99750.47;10190641;28;20055;-62
2023/08/05 12:12:00;;;;;;;1.40;0.68;;;;;;;26.15;44.13;99742.63;10205461;28;20160;-62
2023/08/05 12:17:03;;;;;;;1.15;0.55;;;;;;;25.85;41.60;99736.22;10188625;28;20622;-62
2023/08/05 12:22:04;;;;;;;;;;;;;;;25.54;43.11;99737.38;10188357;28;20334;-62
2023/08/05 12:27:06;;;;;;;0.70;0.50;;;;;;;25.24;42.60;99721.91;10193161;28;20511;-62
2023/08/05 12:32:07;;;;;;;0.95;0.70;;;;;;;25.05;44.00;99721.94;10185678;28;20059;-62
2023/08/05 12:37:09;;;;;;;2.40;0.80;;;;;;;24.64;42.74;99709.97;10188184;28;20604;-62
2023/08/05 12:42:11;;;;;;;1.02;0.50;;;;;;;24.33;45.07;99703.59;10190440;28;20680;-62
2023/08/05 12:47:13;;;;;;;1.58;0.77;;;;;;;24.19;46.38;99702.13;10176734;28;20055;-62
2023/08/05 12:52:14;;;;;;;1.80;0.80;;;;;;;24.01;45.00;99689.34;10188496;28;20051;-61
2023/08/05 12:57:16;;;;;;;1.63;0.95;;;;;;;23.98;45.20;99684.38;10187686;28;20178;-61
2023/08/05 13:02:21;;;;;;;0.75;0.43;;;;;;;23.99;44.94;99681.41;10186401;28;20414;-63
2023/08/05 13:07:23;;;;;;;2.13;0.80;;;;;;;24.38;43.67;99677.63;10197700;28;20065;-62
2023/08/05 13:12:25;;;;;;;1.65;0.70;;;;;;;24.51;44.87;99658.41;10172573;28;20055;-62
2023/08/05 13:17:26;;;;;;;1.75;0.60;;;;;;;24.57;44.04;99653.94;10183872;28;20134;-62
2023/08/05 13:22:28;;;;;;;1.00;0.60;;;;;;;24.39;45.44;99646.66;10183700;28;20428;-62
2023/08/05 13:27:32;;;;;;;1.35;0.50;;;;;;;24.22;44.99;99641.84;10187707;28;20507;-61
2023/08/05 13:32:33;;;;;;;0.90;0.70;;;;;;;24.08;46.26;99640.31;10183979;28;20078;-62
2023/08/05 13:37:35;;;;;;;2.17;0.65;;;;;;;24.34;46.55;99631.03;10199159;28;20477;-63
2023/08/05 13:42:37;;;;;;;1.23;0.90;;;;;;;24.43;46.51;99628.81;10181545;28;20497;-61
2023/08/05 13:47:38;;;;;;;1.35;0.85;;;;;;;24.45;46.69;99613.91;10183310;28;20064;-61
2023/08/05 13:52:42;;;;;;;3.65;1.05;;;;;;;24.50;45.42;99599.63;10182143;28;20050;-61
2023/08/05 13:57:43;;;;;;;;;;;;;;;24.47;45.06;99592.78;10187129;28;20056;-61
2023/08/05 14:02:45;;;;;;;1.48;0.88;;;;;;;24.38;43.65;99575.13;10183742;28;20415;-61
2023/08/05 14:07:46;;;;;;;1.80;0.60;;;;;;;24.27;44.14;99571.28;10177837;28;20709;-60
2023/08/05 14:12:48;;;;;;;1.25;0.60;;;;;;;24.35;44.86;99565.53;10175396;28;20059;-60
2023/08/05 14:17:49;;;;;;;1.58;1.05;;;;;;;24.35;43.33;99562.81;10181738;28;20110;-60
2023/08/05 14:22:51;;;;;;;0.90;0.50;;;;;;;24.40;44.71;99561.28;10168976;28;20567;-60
2023/08/05 14:27:52;;;;;;;1.05;0.90;;;;;;;24.18;45.08;99553.63;10183346;28;20103;-60
2023/08/05 14:32:54;;;;;;;2.42;0.98;;;;;;;24.10;46.56;99540.38;10196268;28;20047;-60
2023/08/05 14:37:55;;;;;;;1.33;1.08;;;;;;;24.07;46.96;99557.13;10177523;28;20074;-60
2023/08/05 14:42:57;;;;;;;2.83;1.40;;;;;;;23.72;49.34;99563.16;10183451;28;20054;-60
2023/08/05 14:47:58;;;;;;;1.50;0.88;;;;;;;23.45;51.33;99536.31;10171926;28;20066;-60
2023/08/05 14:53:00;;;;;;;2.55;1.20;;;;;;;23.15;51.74;99542.47;10180657;28;20521;-60
2023/08/05 14:58:02;;;;;;;1.50;1.40;;;;;;;23.04;52.47;99538.53;10178126;28;20130;-60
2023/08/05 15:03:03;;;;;;;1.45;1.00;;;;;;;22.93;53.19;99531.97;10183544;28;20547;-60
2023/08/05 15:08:09;;;;;;;1.77;1.17;;;;;;;22.87;53.11;99522.00;10170586;28;20055;-60
2023/08/05 15:13:10;;;;;;;2.20;1.15;;;;;;;22.97;52.31;99520.66;10182844;28;20048;-60
2023/08/05 15:18:12;;;;;;;2.35;1.52;;;;;;;23.11;52.72;99511.38;10181705;28;20158;-60
2023/08/05 15:23:13;;;;;;;2.10;0.90;;;;;;;23.27;52.15;99504.56;10180586;28;20057;-60
2023/08/05 15:28:31;;;;;;;6.15;2.13;;;;;;;23.38;52.64;99497.53;10178392;28;20051;-60
2023/08/05 15:33:32;;;;;;;2.15;1.15;;;;;;;23.47;51.97;99494.28;10177557;28;20081;-60
2023/08/05 15:38:34;;;;;;;1.75;1.00;;;;;;;23.54;51.78;99486.06;10195953;28;20258;-60
2023/08/05 15:43:35;;;;;;;1.83;1.02;;;;;;;23.54;52.05;99479.78;10197791;28;20209;-60
2023/08/05 15:48:37;;;;;;;2.35;1.15;;;;;;;23.48;52.15;99476.13;10177552;28;20154;-60
2023/08/05 15:53:38;;;;;;;1.10;0.90;;;;;;;23.16;52.96;99481.66;10177313;28;20176;-60
2023/08/05 15:58:42;;;;;;;2.33;1.20;;;;;;;22.91;54.27;99485.25;10180410;28;21063;-60
2023/08/05 16:03:43;;;;;;;1.48;1.08;;;;;;;;;;10180901;28;20223;-60
2023/08/05 16:08:45;;;;;;;2.28;0.90;;;;;;;22.78;55.02;99479.94;10187423;28;20218;-60
2023/08/05 16:13:47;;;;;;;1.70;1.13;;;;;;;22.76;54.88;99473.91;10203767;28;20118;-60
2023/08/05 16:18:48;;;;;;;1.33;0.85;;;;;;;22.63;55.15;99457.75;10191206;28;20059;-60
2023/08/05 16:23:54;;;;;;;1.58;1.48;;;;;;;22.55;54.90;99461.56;10188238;28;20134;-60
2023/08/05 16:28:55;;;;;;;1.55;1.45;;;;;;;22.44;55.46;99457.66;10185871;28;20142;-60
2023/08/05 16:33:57;;;;;;;1.20;1.10;;;;;;;22.37;57.07;99478.59;10182815;28;20071;-61
2023/08/05 16:38:59;;;;;;;1.77;1.40;;;;;;;22.14;62.10;99479.13;10184375;28;20147;-60
2023/08/05 16:44:02;;;;;;;4.20;2.63;;;;;;;21.65;70.22;99493.13;10179725;28;20636;-60
2023/08/05 16:49:06;;;;;;;4.05;2.78;;;;;;;21.39;75.82;99515.66;10197919;28;20047;-60
2023/08/05 16:54:11;;;;;;;4.45;2.45;;;;;;;21.32;76.61;99482.41;10200465;28;20055;-60
2023/08/05 16:59:14;;;;;;;2.90;1.95;;;;;;;21.30;75.02;99476.34;10188366;28;20554;-61
2023/08/05 17:04:15;;;;;;;3.33;2.17;;;;;;;21.29;76.21;99493.66;10187124;28;20776;-60
2023/08/05 17:09:19;;;;;;;2.13;1.90;;;;;;;21.22;73.65;99492.84;10174257;28;20150;-61
2023/08/05 17:14:21;;;;;;;;;;;;;;;21.17;77.43;99480.75;10183690;28;20097;-58
2023/08/05 17:19:22;;;;;;;4.63;3.60;;;;;;;21.22;79.73;99471.19;10186892;28;20080;-61
2023/08/05 17:24:24;;;;;;;3.08;2.58;;;;;;;21.18;79.72;99468.91;10179713;28;20670;-60
2023/08/05 17:29:28;;;;;;;4.40;4.00;;;;;;;21.15;78.11;99476.59;10177921;28;20054;-59
2023/08/05 17:34:30;;;;;;;4.72;3.58;;;;;;;21.06;76.89;99484.09;10174053;28;20050;-61
2023/08/05 17:39:34;;;;;;;4.03;2.85;;;;;;;20.96;75.77;99483.72;10181464;28;20047;-60
2023/08/05 17:44:36;;;;;;;3.72;2.22;;;;;;;20.65;75.33;99466.22;10179307;28;20552;-62
2023/08/05 17:49:38;;;;;;;2.30;2.10;;;;;;;20.51;75.63;99475.38;10182790;28;20461;-60
2023/08/05 17:54:40;;;;;;;2.50;2.30;;;;;;;20.35;76.73;99460.41;10182773;28;20575;-66
2023/08/05 17:59:45;;;;;;;3.65;2.97;;;;;;;20.40;78.09;99461.47;10178064;28;20051;-60
2023/08/05 18:04:47;;;;;;;3.35;3.00;;;;;;;20.53;79.88;99476.00;10146028;28;20059;-60
2023/08/05 18:09:50;;;;;;;;;;;;;;;20.52;81.35;99469.75;10166736;28;20063;-59
2023/08/05 18:14:51;;;;;;;3.20;2.63;;;;;;;20.53;79.48;99465.19;10188572;28;20006;-60
2023/08/05 18:19:54;;;;;;;3.92;3.13;;;;;;;20.52;81.19;99472.47;10173746;28;20055;-60
2023/08/05 18:24:56;;;;;;;3.60;3.28;;;;;;;20.54;83.09;99469.56;10166041;28;20075;-65
2023/08/05 18:29:58;;;;;;;3.95;3.65;;;;;;;20.55;83.03;99463.09;10180822;28;20062;-60
2023/08/05 18:34:59;;;;;;;5.05;4.28;;;;;;;20.58;83.70;99470.81;10182033;28;20488;-60
2023/08/05 18:40:02;;;;;;;6.75;4.80;;;;;;;20.56;84.20;99478.31;10183042;28;20055;-60
2023/08/05 18:45:05;;;;;;;5.82;5.25;;;;;;;20.52;84.56;99482.44;10176629;28;20847;-60
2023/08/05 18:50:07;;;;;;;6.43;4.53;;;;;;;20.45;80.91;99488.69;10164393;28;20085;-60
2023/08/05 18:55:10;;;;;;;5.32;4.30;;;;;;;20.40;81.63;99480.38;10178902;28;20137;-60
2023/08/05 19:00:12;;;;;;;4.25;3.70;;;;;;;20.36;83.29;99481.81;10184553;28;20635;-60
2023/08/05 19:05:15;;;;;;;4.90;4.22;;;;;;;20.36;85.13;99484.53;10164922;28;20473;-61
2023/08/05 19:10:17;;;;;;;5.07;3.85;;;;;;;20.36;85.71;99472.91;10172205;28;20172;-61
2023/08/05 19:15:19;;;;;;;5.15;4.65;;;;;;;20.30;84.02;99478.06;10174460;28;20767;-66
2023/08/05 19:20:21;;;;;;;6.50;4.38;;;;;;;20.29;86.83;99462.06;10191082;28;20102;-63
2023/08/05 19:25:22;;;;;;;6.38;5.43;;;;;;;20.26;88.82;99457.06;10164301;28;20047;-61
2023/08/05 19:30:24;;;;;;;9.25;8.30;;;;;;;20.22;87.57;99447.69;10170911;28;20055;-61
2023/08/05 19:35:29;;;;;;;8.50;7.80;;;;;;;20.16;88.46;99451.22;10194477;28;20084;-62
2023/08/05 19:40:34;;;;;;;6.60;5.78;;;;;;;20.03;89.62;99466.38;10176870;28;20055;-59
2023/08/05 19:45:35;;;;;;;4.75;4.03;;;;;;;19.99;89.54;99472.41;10188994;28;20705;-60
2023/08/05 19:50:37;;;;;;;5.22;4.72;;;;;;;19.94;87.64;99473.84;10189519;28;20055;-60
2023/08/05 19:55:39;;;;;;;4.63;4.15;;;;;;;19.89;88.56;99467.38;10182035;28;20770;-62
2023/08/05 20:00:41;;;;;;;4.45;4.05;;;;;;;19.84;88.46;99469.88;10185862;28;20066;-59
2023/08/05 20:05:48;;;;;;;6.35;5.28;;;;;;;19.81;89.72;99464.88;10187509;28;22273;-59
2023/08/05 20:10:50;;;;;;;6.25;4.68;;;;;;;19.77;88.41;99461.69;10191911;28;20050;-60
2023/08/05 20:16:01;;;;;;;5.45;4.13;;;;;;;19.74;88.20;99465.66;10191720;28;20119;-59
2023/08/05 20:21:03;;;;;;;5.00;3.97;;;;;;;19.69;86.86;99446.53;10181903;28;20063;-60
2023/08/05 20:26:09;;;;;;;3.13;2.92;;;;;;;19.64;87.50;99456.28;10174306;28;20189;-61
2023/08/05 20:31:18;;;;;;;3.80;3.33;;;;;;;19.61;87.84;99444.00;10183847;28;20048;-59
2023/08/05 20:36:20;;;;;;;4.22;3.83;;;;;;;19.61;88.74;99425.94;10179040;28;20159;-61
2023/08/05 20:41:22;;;;;;;3.22;2.83;;;;;;;19.59;87.93;99419.06;10190096;28;20050;-59
2023/08/05 20:46:23;;;;;;;4.07;3.17;;;;;;;19.52;87.18;99424.47;10179407;28;20126;-60
2023/08/05 20:51:26;;;;;;;3.67;3.38;;;;;;;19.43;87.58;99415.69;10183690;28;20059;-60
2023/08/05 20:56:28;;;;;;;3.43;3.13;;;;;;;19.39;87.53;99398.25;10187793;28;20199;-60
2023/08/05 21:01:29;;;;;;;2.83;2.63;;;;;;;19.41;88.37;99388.09;10184580;28;20223;-61
2023/08/05 21:06:32;;;;;;;4.68;3.35;;;;;;;19.43;88.77;99377.09;10188714;28;20058;-60
2023/08/05 21:11:33;;;;;;;3.47;2.75;;;;;;;19.38;86.03;99358.81;10171413;28;20059;-60
2023/08/05 21:16:35;;;;;;;3.35;3.05;;;;;;;19.33;87.22;99350.50;10188901;28;20067;-60
2023/08/05 21:21:37;;;;;;;4.25;3.85;;;;;;;19.35;89.43;99340.34;10202305;28;20808;-60
2023/08/05 21:26:39;;;;;;;4.53;3.65;;;;;;;19.34;87.59;99330.56;10184083;28;20412;-61
2023/08/05 21:31:40;;;;;;;4.35;3.25;;;;;;;19.28;88.92;99320.59;10175183;28;20139;-60
2023/08/05 21:36:42;;;;;;;5.78;3.30;;;;;;;19.23;86.60;99312.25;10185116;28;20052;-61
2023/08/05 21:41:44;;;;;;;4.28;3.42;;;;;;;19.17;86.83;99313.06;10180900;28;20059;-61
2023/08/05 21:46:46;;;;;;;4.00;3.10;;;;;;;19.05;85.29;99307.44;10197578;28;20075;-60
2023/08/05 21:51:47;;;;;;;3.63;2.90;;;;;;;18.99;85.62;99311.78;10182149;28;20137;-61
2023/08/05 21:56:49;;;;;;;4.40;2.58;;;;;;;18.93;87.10;99295.56;10179398;28;20048;-61
2023/08/05 22:01:50;;;;;;;3.83;2.90;;;;;;;18.89;85.39;99287.06;10180283;28;20054;-61
2023/08/05 22:06:52;;;;;;;3.28;2.97;;;;;;;18.85;85.60;99293.84;10181398;28;20078;-61
2023/08/05 22:11:54;;;;;;;3.08;2.67;;;;;;;18.80;85.45;99294.44;10175011;28;20069;-60
2023/08/05 22:16:55;;;;;;;3.45;3.13;;;;;;;18.74;86.43;99295.25;10179721;28;20083;-60
2023/08/05 22:21:57;;;;;;;3.50;3.22;;;;;;;18.73;86.15;99299.81;10175510;28;20051;-60
2023/08/05 22:26:58;;;;;;;3.17;2.33;;;;;;;18.71;87.15;99277.63;10182082;28;20071;-61
2023/08/05 22:32:00;;;;;;;2.58;2.38;;;;;;;18.72;87.17;99283.84;10179379;28;20689;-60
2023/08/05 22:37:02;;;;;;;3.60;2.63;;;;;;;18.72;86.68;99281.97;10179146;28;20448;-61
2023/08/05 22:42:05;;;;;;;3.38;2.53;;;;;;;18.66;86.62;99285.47;10183136;28;20058;-60
2023/08/05 22:47:06;;;;;;;3.60;2.60;;;;;;;18.61;86.92;99273.63;10183825;28;20055;-60
2023/08/05 22:52:08;;;;;;;3.15;2.47;;;;;;;18.60;85.73;99277.34;10182475;28;20146;-60
2023/08/05 22:57:10;;;;;;;3.00;2.22;;;;;;;18.59;86.14;99271.13;10166505;28;20058;-60
2023/08/05 23:02:12;;;;;;;3.45;2.65;;;;;;;18.64;87.08;99271.34;10189881;28;20060;-60
2023/08/05 23:07:13;;;;;;;3.40;2.45;;;;;;;18.65;85.01;99264.13;10181634;28;20059;-60
2023/08/05 23:12:14;;;;;;;2.42;2.13;;;;;;;18.59;84.50;99257.66;10192733;28;20537;-61
2023/08/05 23:17:16;;;;;;;3.13;1.88;;;;;;;18.63;83.19;99258.94;10165735;28;20063;-61
2023/08/05 23:22:18;;;;;;;2.65;2.45;;;;;;;18.60;82.65;99272.81;10179477;28;20532;-60
2023/08/05 23:27:19;;;;;;;4.35;2.22;;;;;;;18.60;84.90;99270.13;10181740;28;20397;-60